Time;durP1;ratioP1;P1;durP2;ratioP2;P2;SDS_P1;SDS_P2;PMS_P1;PMS_P2;Temp;Humidity;BMP_temperature;BMP_pressure;BME280_temperature;BME280_humidity;BME280_pressure;Samples;Min_cycle;Max_cycle;Signal;HPM_P1;HPM_P2
2021/05/18 00:00:15;;;;;;;7.55;4.55;;;;;;;21.88;60.70;100316.59;1719923;81;21055;-48
2021/05/18 00:02:42;;;;;;;5.22;4.00;;;;;;;21.86;60.64;100314.03;1721944;81;21552;-48
2021/05/18 00:05:11;;;;;;;6.72;3.87;;;;;;;21.85;60.66;100310.19;1779370;79;21044;-49
2021/05/18 00:07:39;;;;;;;4.65;3.42;;;;;;;21.81;60.74;100304.72;1771655;79;21078;-48
2021/05/18 00:12:53;;;;;;;4.47;3.75;;;;;;;21.76;60.97;100301.59;1721774;82;21639;-49
2021/05/18 00:15:20;;;;;;;6.67;4.22;;;;;;;21.75;60.94;100299.89;1788518;79;21127;-48
2021/05/18 00:17:47;;;;;;;4.47;3.27;;;;;;;21.73;61.08;100292.06;1775118;79;21073;-49
2021/05/18 00:20:17;;;;;;;9.65;4.55;;;;;;;21.74;61.05;100303.00;1767760;80;21112;-48
2021/05/18 00:22:45;;;;;;;7.08;3.98;;;;;;;21.73;61.04;100309.75;1777300;79;21063;-49
2021/05/18 00:25:13;;;;;;;4.87;3.95;;;;;;;21.71;60.98;100311.66;1717699;82;21072;-49
2021/05/18 00:27:40;;;;;;;5.05;4.53;;;;;;;21.69;61.07;100306.49;1713836;82;21065;-48
2021/05/18 00:30:09;;;;;;;6.85;3.98;;;;;;;21.67;61.15;100307.56;1718408;82;21092;-48
2021/05/18 00:32:36;;;;;;;4.62;4.20;;;;;;;21.65;61.26;100304.18;1774997;79;21068;-49
2021/05/18 00:35:05;;;;;;;6.65;4.67;;;;;;;21.64;61.27;100303.33;1756015;79;21028;-49
2021/05/18 00:37:32;;;;;;;5.28;4.72;;;;;;;21.63;61.35;100301.66;1782746;79;22345;-49
2021/05/18 00:39:58;;;;;;;8.80;3.87;;;;;;;21.63;61.36;100307.42;1762504;79;21785;-48
2021/05/18 00:42:25;;;;;;;5.78;3.90;;;;;;;21.64;61.26;100302.47;1771219;79;21076;-48
2021/05/18 00:44:53;;;;;;;6.15;3.52;;;;;;;21.63;61.31;100299.48;1766041;79;21135;-48
2021/05/18 00:47:19;;;;;;;4.92;4.22;;;;;;;21.63;61.35;100300.80;1787807;78;21048;-48
2021/05/18 00:49:48;;;;;;;6.42;4.37;;;;;;;21.64;61.35;100305.13;1762222;79;21567;-48
2021/05/18 00:52:16;;;;;;;6.97;4.45;;;;;;;21.63;61.33;100300.80;1770900;79;21051;-49
2021/05/18 00:59:57;;;;;;;4.55;3.33;;;;;;;21.61;61.30;100292.13;1714696;82;21628;-49
2021/05/18 01:02:25;;;;;;;9.05;4.42;;;;;;;21.60;61.55;100293.08;1726252;82;21107;-49
2021/05/18 01:05:07;;;;;;;8.73;4.05;;;;;;;21.60;61.62;100291.75;1691520;84;21120;-48
2021/05/18 01:07:20;;;;;;;4.70;3.87;;;;;;;21.60;61.66;100287.31;1728614;82;21603;-49
2021/05/18 01:09:48;;;;;;;4.53;3.83;;;;;;;21.61;61.66;100281.54;1670767;84;21080;-49
2021/05/18 01:12:15;;;;;;;6.12;3.10;;;;;;;21.62;61.65;100286.71;1689583;84;21092;-48
2021/05/18 01:14:43;;;;;;;6.47;4.08;;;;;;;21.62;61.60;100284.06;1727811;82;21052;-49
2021/05/18 01:17:10;;;;;;;5.75;3.60;;;;;;;21.63;61.56;100288.42;1730691;82;21577;-48
2021/05/18 01:19:38;;;;;;;6.70;3.52;;;;;;;21.63;61.60;100292.39;1722289;82;21172;-48
2021/05/18 01:22:06;;;;;;;7.58;3.70;;;;;;;21.64;61.54;100283.94;1718979;82;21037;-48
2021/05/18 01:24:34;;;;;;;7.67;3.58;;;;;;;21.62;61.60;100281.42;1729602;82;21048;-48
2021/05/18 01:27:03;;;;;;;7.67;3.70;;;;;;;21.64;61.67;100278.64;1732263;82;21031;-48
2021/05/18 01:29:29;;;;;;;8.05;4.00;;;;;;;21.64;61.77;100270.70;1730494;82;21064;-48
2021/05/18 01:31:56;;;;;;;8.95;4.03;;;;;;;21.64;61.72;100268.05;1723747;82;22839;-49
2021/05/18 01:34:23;;;;;;;9.90;3.83;;;;;;;21.65;61.67;100273.73;1719797;82;21098;-48
2021/05/18 01:36:50;;;;;;;7.15;3.45;;;;;;;21.67;61.49;100271.81;1725551;82;21079;-48
2021/05/18 01:44:35;;;;;;;6.75;3.27;;;;;;;21.70;61.45;100267.63;1640156;86;21138;-48
2021/05/18 01:47:03;;;;;;;4.70;3.30;;;;;;;21.70;61.38;100259.68;1653760;85;21578;-49
2021/05/18 01:49:32;;;;;;;5.40;3.10;;;;;;;21.69;61.37;100263.27;1640504;86;21088;-49
2021/05/18 01:52:01;;;;;;;5.87;3.55;;;;;;;21.68;61.45;100261.56;1650481;86;21135;-48
2021/05/18 01:54:32;;;;;;;6.53;3.50;;;;;;;21.68;61.52;100256.27;1666599;83;21047;-48
2021/05/18 01:59:31;;;;;;;9.40;3.92;;;;;;;21.69;61.43;100252.68;1701005;83;21597;-48
2021/05/18 02:02:03;;;;;;;8.58;4.12;;;;;;;21.68;61.37;100248.33;1695927;83;21078;-49
2021/05/18 02:04:42;;;;;;;6.80;3.58;;;;;;;21.67;61.31;100254.59;1693997;83;21103;-49
2021/05/18 02:07:18;;;;;;;6.25;3.45;;;;;;;21.63;61.31;100250.50;1594815;88;22295;-48
2021/05/18 02:09:47;;;;;;;3.05;2.67;;;;;;;21.57;61.33;100249.16;1619230;87;21223;-48
2021/05/18 02:12:15;;;;;;;4.00;2.75;;;;;;;21.53;61.45;100247.70;1605760;87;21091;-48
2021/05/18 02:14:45;;;;;;;6.72;3.58;;;;;;;21.50;61.64;100251.03;1607425;87;21683;-48
2021/05/18 02:25:08;;;;;;;8.68;3.35;;;;;;;21.51;61.72;100247.45;1536196;91;21110;-51
2021/05/18 02:27:57;;;;;;;4.90;3.30;;;;;;;21.51;61.72;100246.12;1533164;92;21222;-49
2021/05/18 02:30:25;;;;;;;3.72;3.30;;;;;;;21.48;61.75;100247.66;1538891;92;21126;-48
2021/05/18 02:32:54;;;;;;;5.65;3.25;;;;;;;21.44;61.82;100254.14;1534661;92;21185;-48
2021/05/18 02:35:22;;;;;;;8.10;4.00;;;;;;;21.42;61.91;100260.03;1518363;93;21677;-49
2021/05/18 02:37:50;;;;;;;3.85;3.17;;;;;;;21.37;61.97;100262.19;1528800;92;21823;-47
2021/05/18 02:40:21;;;;;;;4.70;3.20;;;;;;;21.32;62.09;100256.38;1520745;93;21734;-48
2021/05/18 02:42:48;;;;;;;4.87;3.30;;;;;;;21.27;62.26;100267.80;1556201;89;21114;-51
2021/05/18 02:45:36;;;;;;;5.95;3.40;;;;;;;21.23;62.42;100272.91;1567017;90;21195;-48
2021/05/18 02:50:46;;;;;;;4.08;3.60;;;;;;;21.17;62.77;100264.11;1597513;88;21077;-49
2021/05/18 02:53:16;;;;;;;6.08;3.30;;;;;;;21.18;62.84;100264.48;1580059;87;21608;-49
2021/05/18 02:55:56;;;;;;;5.08;3.55;;;;;;;21.18;62.92;100272.42;1577712;90;21113;-48
2021/05/18 02:58:14;;;;;;;6.80;3.40;;;;;;;21.19;62.99;100272.77;1570573;89;21617;-49
2021/05/18 03:00:41;;;;;;;6.78;3.30;;;;;;;21.21;63.04;100277.47;1561805;90;21131;-50
2021/05/18 03:03:08;;;;;;;5.67;3.62;;;;;;;21.22;63.06;100273.89;1583054;84;21647;-49
2021/05/18 03:05:35;;;;;;;6.15;3.65;;;;;;;21.23;63.11;100268.95;1689485;83;21100;-49
2021/05/18 03:08:04;;;;;;;3.27;2.95;;;;;;;21.24;63.08;100270.18;1688169;83;21147;-49
2021/05/18 03:10:31;;;;;;;7.97;3.75;;;;;;;21.25;63.16;100265.71;1651914;86;21550;-48
2021/05/18 03:12:59;;;;;;;4.78;3.37;;;;;;;21.28;63.22;100264.17;1691647;84;21657;-49
2021/05/18 03:15:25;;;;;;;10.30;4.22;;;;;;;21.27;63.45;100262.00;1648326;84;21089;-49
2021/05/18 03:17:53;;;;;;;7.75;3.30;;;;;;;21.32;63.68;100255.05;1685173;83;21095;-49
2021/05/18 03:20:20;;;;;;;4.70;3.70;;;;;;;21.39;63.73;100262.92;1697765;82;21607;-48
2021/05/18 03:22:47;;;;;;;5.70;3.25;;;;;;;21.48;63.77;100251.63;1745253;81;21045;-49
2021/05/18 03:25:15;;;;;;;5.17;3.70;;;;;;;21.64;63.59;100256.14;1738661;80;21491;-49
2021/05/18 03:27:43;;;;;;;4.83;3.50;;;;;;;21.93;63.20;100256.14;1699900;82;21024;-50
2021/05/18 03:30:26;;;;;;;4.08;2.77;;;;;;;22.32;62.46;100259.70;1717906;82;21069;-48
2021/05/18 03:35:34;;;;;;;3.60;2.50;;;;;;;23.19;59.68;100254.94;1729442;81;21107;-49
2021/05/18 03:38:05;;;;;;;6.85;3.30;;;;;;;23.50;58.28;100251.48;1772391;79;21025;-48
2021/05/18 03:40:30;;;;;;;4.35;2.37;;;;;;;23.61;57.46;100250.12;1717201;82;21576;-49
2021/05/18 03:43:22;;;;;;;5.90;2.50;;;;;;;23.63;57.12;100252.64;1730493;82;21084;-49
2021/05/18 03:45:44;;;;;;;3.15;2.55;;;;;;;23.60;56.79;100256.38;1733189;82;21092;-49
2021/05/18 04:12:15;;;;;;;7.22;2.30;;;;;;;22.80;57.43;100270.09;1759074;80;21056;-48
2021/05/18 04:17:25;;;;;;;2.20;1.35;;;;;;;22.57;57.34;100273.20;1751170;80;21671;-49
2021/05/18 04:22:31;;;;;;;13.50;2.85;;;;;;;22.40;57.25;100273.20;1674603;83;21048;-49
2021/05/18 04:25:22;;;;;;;15.20;4.45;;;;;;;22.32;57.68;100272.09;1679295;83;21090;-51
2021/05/18 04:59:51;;;;;;;8.98;3.60;;;;;;;21.68;59.71;100264.22;1593153;87;21084;-49
2021/05/18 05:08:03;;;;;;;10.23;3.30;;;;;;;21.57;60.24;100246.98;1584323;88;21144;-49
2021/05/18 05:15:38;;;;;;;8.38;3.50;;;;;;;21.59;60.93;100231.83;1602818;89;21198;-49
2021/05/18 05:18:05;;;;;;;6.78;3.67;;;;;;;21.62;61.10;100232.91;1593223;89;21076;-49
2021/05/18 05:20:33;;;;;;;11.50;3.50;;;;;;;21.63;61.27;100235.94;1596626;88;21092;-49
2021/05/18 05:22:59;;;;;;;8.95;3.12;;;;;;;21.69;61.19;100236.80;1590432;89;21076;-50
2021/05/18 05:25:26;;;;;;;8.45;3.10;;;;;;;21.71;61.30;100237.52;1601649;88;21111;-50
2021/05/18 05:27:53;;;;;;;6.62;3.00;;;;;;;21.75;61.41;100241.63;1595874;89;21067;-50
2021/05/18 05:30:21;;;;;;;7.03;3.33;;;;;;;21.77;61.44;100242.34;1595386;88;21614;-50
2021/05/18 05:32:48;;;;;;;12.90;3.87;;;;;;;21.82;61.52;100249.52;1586998;88;21195;-50
2021/05/18 05:35:15;;;;;;;12.28;3.67;;;;;;;21.86;61.51;100253.11;1606849;87;21111;-49
2021/05/18 05:37:42;;;;;;;8.93;3.80;;;;;;;21.92;61.55;100263.74;1600747;87;21076;-49
2021/05/18 05:40:10;;;;;;;6.03;3.40;;;;;;;21.94;61.65;100266.27;1603733;88;21067;-50
2021/05/18 05:42:37;;;;;;;10.20;3.72;;;;;;;21.97;61.68;100261.56;1608542;88;21147;-49
2021/05/18 05:45:06;;;;;;;10.25;3.55;;;;;;;22.03;61.38;100251.83;1591368;88;21136;-51
2021/05/18 05:47:33;;;;;;;8.25;3.42;;;;;;;22.07;61.38;100257.25;1592848;88;21092;-49
2021/05/18 05:50:00;;;;;;;6.92;3.20;;;;;;;22.09;61.30;100259.30;1587406;83;21119;-49
2021/05/18 05:52:26;;;;;;;6.72;3.00;;;;;;;22.11;61.14;100262.70;1698522;83;21047;-50
2021/05/18 05:54:53;;;;;;;5.53;2.40;;;;;;;22.13;60.57;100259.45;1661305;84;21051;-49
2021/05/18 05:57:20;;;;;;;6.92;2.20;;;;;;;22.13;59.79;100251.51;1688767;83;22953;-50
2021/05/18 05:59:47;;;;;;;5.20;2.10;;;;;;;22.11;59.21;100257.41;1678805;83;21051;-49
2021/05/18 06:02:13;;;;;;;3.37;1.72;;;;;;;22.07;59.06;100261.22;1672676;84;21059;-50
2021/05/18 06:04:40;;;;;;;4.75;2.50;;;;;;;22.00;58.89;100266.65;1669729;84;21635;-49
2021/05/18 06:07:07;;;;;;;4.33;1.60;;;;;;;21.93;59.02;100268.57;1663430;84;21108;-50
2021/05/18 06:09:36;;;;;;;2.30;1.52;;;;;;;21.84;58.97;100264.81;1652220;85;23393;-50
2021/05/18 06:17:54;;;;;;;5.90;1.52;;;;;;;21.74;59.34;100265.11;1776936;79;21065;-50
2021/05/18 06:47:35;;;;;;;4.45;1.40;;;;;;;21.33;59.10;100219.70;1689301;83;21056;-50
2021/05/18 06:52:42;;;;;;;5.42;1.27;;;;;;;21.32;59.33;100216.68;1600426;88;21087;-50
2021/05/18 06:57:43;;;;;;;7.67;2.60;;;;;;;21.30;59.70;100214.16;1500807;94;21695;-50
2021/05/18 07:00:12;;;;;;;7.97;1.87;;;;;;;21.28;59.65;100204.64;1522103;93;21095;-50
2021/05/18 07:02:42;;;;;;;9.78;2.47;;;;;;;21.27;59.54;100187.91;1508727;94;21067;-50
2021/05/18 07:07:39;;;;;;;7.78;2.15;;;;;;;21.21;59.82;100166.34;1425930;98;21126;-50
2021/05/18 07:10:09;;;;;;;3.58;2.02;;;;;;;21.17;60.04;100152.51;1434643;94;21670;-50
2021/05/18 07:12:38;;;;;;;12.13;2.40;;;;;;;21.14;60.31;100133.38;1502747;93;21112;-50
2021/05/18 07:15:07;;;;;;;5.62;2.33;;;;;;;21.11;60.61;100130.95;1518779;94;21203;-50
2021/05/18 07:17:33;;;;;;;7.60;2.52;;;;;;;21.08;60.68;100132.52;1515058;94;21100;-50
2021/05/18 07:20:03;;;;;;;8.03;2.55;;;;;;;21.05;60.93;100141.05;1505836;93;21743;-50
2021/05/18 07:22:30;;;;;;;12.80;2.80;;;;;;;21.06;61.17;100143.23;1511993;94;21106;-50
2021/05/18 07:24:57;;;;;;;8.58;3.05;;;;;;;21.06;61.42;100148.02;1503698;93;21637;-50
2021/05/18 07:27:24;;;;;;;7.90;2.65;;;;;;;21.06;61.74;100149.84;1502321;93;21188;-50
2021/05/18 07:29:52;;;;;;;10.65;2.42;;;;;;;21.07;62.01;100151.52;1501442;94;21125;-49
2021/05/18 07:32:21;;;;;;;12.30;2.62;;;;;;;21.05;62.21;100135.77;1505551;94;21676;-49
2021/05/18 07:34:49;;;;;;;10.98;2.65;;;;;;;21.06;62.42;100139.26;1495177;94;21853;-49
2021/05/18 07:37:16;;;;;;;7.08;2.58;;;;;;;21.10;62.59;100143.36;1506298;93;21132;-49
2021/05/18 07:39:43;;;;;;;6.62;2.22;;;;;;;21.16;62.72;100147.34;1511729;93;21129;-49
2021/05/18 07:42:10;;;;;;;7.05;2.67;;;;;;;21.23;62.82;100154.70;1502105;93;21200;-50
2021/05/18 07:44:38;;;;;;;4.45;2.45;;;;;;;21.33;62.95;100156.19;1528116;91;21124;-49
2021/05/18 07:47:04;;;;;;;5.75;2.90;;;;;;;21.44;62.73;100164.14;1554265;91;21155;-49
2021/05/18 07:49:35;;;;;;;7.50;2.75;;;;;;;21.53;62.59;100167.44;1562757;91;21072;-49
2021/05/18 08:00:29;;;;;;;7.00;3.30;;;;;;;22.02;62.55;100175.12;1793696;79;21029;-51
2021/05/18 08:05:28;;;;;;;6.10;3.00;;;;;;;22.18;62.07;100181.75;1786636;79;21059;-49
2021/05/18 08:07:53;;;;;;;6.08;3.17;;;;;;;22.25;62.12;100174.17;1795619;79;21021;-49
2021/05/18 08:10:25;;;;;;;7.80;3.10;;;;;;;22.35;61.85;100170.67;1779652;79;21048;-49
2021/05/18 08:12:49;;;;;;;7.92;3.95;;;;;;;22.46;61.95;100171.15;1759477;78;21067;-48
2021/05/18 09:47:58;;;;;;;4.92;2.30;;;;;;;24.19;55.05;100136.55;1526055;93;21163;-50
2021/05/18 10:34:48;;;;;;;3.22;2.92;;;;;;;24.67;52.64;100101.25;1624766;86;21020;-50
2021/05/18 10:40:26;;;;;;;;;;;;;;;24.78;52.39;100095.37;1626731;87;21618;-48
2021/05/18 10:43:20;;;;;;;4.35;3.47;;;;;;;24.83;52.08;100096.28;1602842;88;20175;-48
2021/05/18 10:46:05;;;;;;;4.72;3.40;;;;;;;24.84;51.91;100097.95;1626520;86;21075;-48
2021/05/18 10:48:42;;;;;;;8.45;3.55;;;;;;;24.86;51.83;100095.98;1626846;86;21050;-49
2021/05/18 10:51:36;;;;;;;4.65;3.22;;;;;;;24.88;51.68;100092.21;1608324;87;21755;-48
2021/05/18 10:54:27;;;;;;;3.85;3.42;;;;;;;24.89;51.54;100093.88;1606262;86;21115;-49
2021/05/18 10:56:59;;;;;;;5.33;4.00;;;;;;;24.89;51.59;100090.41;1597699;88;21098;-49
2021/05/18 10:59:38;;;;;;;4.50;4.10;;;;;;;24.92;51.52;100084.78;1592953;88;21107;-51
2021/05/18 11:02:21;;;;;;;4.42;4.03;;;;;;;24.92;51.31;100080.79;1600283;88;21125;-49
2021/05/18 11:05:07;;;;;;;4.08;3.77;;;;;;;24.91;51.44;100080.45;1610493;86;21097;-49
2021/05/18 11:07:44;;;;;;;3.90;3.60;;;;;;;24.91;51.66;100085.78;1641101;86;21107;-49
2021/05/18 11:10:20;;;;;;;5.85;3.80;;;;;;;24.92;51.80;100086.96;1665183;84;21052;-49
2021/05/18 11:12:52;;;;;;;4.70;4.30;;;;;;;24.94;51.70;100092.13;1636618;86;21179;-50
2021/05/18 11:15:21;;;;;;;4.58;4.17;;;;;;;24.97;51.55;100098.52;1602963;87;21106;-49
2021/05/18 11:17:51;;;;;;;4.35;4.05;;;;;;;24.99;51.43;100100.55;1674884;84;21123;-50
2021/05/18 11:23:22;;;;;;;6.58;4.60;;;;;;;25.00;51.21;100096.89;1577100;88;21170;-49
2021/05/18 11:26:01;;;;;;;4.70;4.30;;;;;;;25.01;51.32;100091.94;1574924;90;21080;-49
2021/05/18 11:28:37;;;;;;;5.05;4.55;;;;;;;25.02;51.37;100097.59;1581466;90;21624;-49
2021/05/18 11:31:10;;;;;;;5.53;5.08;;;;;;;24.99;51.21;100101.88;1566604;91;21599;-49
2021/05/18 11:33:47;;;;;;;7.45;5.65;;;;;;;24.90;51.08;100102.71;1506058;94;21703;-50
2021/05/18 11:36:21;;;;;;;6.22;5.72;;;;;;;24.79;51.03;100097.03;1509374;93;22617;-49
2021/05/18 11:39:01;;;;;;;9.38;6.08;;;;;;;24.64;51.03;100097.08;1509569;92;21209;-50
2021/05/18 11:41:31;;;;;;;6.58;5.97;;;;;;;24.47;51.40;100107.53;1513739;93;21186;-49
2021/05/18 11:43:59;;;;;;;5.95;5.47;;;;;;;24.32;51.90;100108.91;1494882;94;21185;-48
2021/05/18 11:46:27;;;;;;;5.50;5.03;;;;;;;24.19;52.12;100109.97;1477666;95;21640;-49
2021/05/18 11:49:10;;;;;;;6.58;5.15;;;;;;;24.07;52.40;100107.06;1469085;96;21147;-49
2021/05/18 11:51:52;;;;;;;6.92;6.33;;;;;;;23.99;53.10;100110.00;1468127;96;21753;-49
2021/05/18 11:54:21;;;;;;;11.08;6.47;;;;;;;23.88;54.25;100100.33;1440866;97;21115;-49
2021/05/18 11:56:51;;;;;;;7.92;6.85;;;;;;;23.80;54.59;100105.95;1482528;95;21207;-48
2021/05/18 11:59:23;;;;;;;5.83;5.25;;;;;;;23.72;54.80;100105.27;1482301;94;21345;-49
2021/05/18 12:01:56;;;;;;;5.30;4.55;;;;;;;23.65;54.86;100109.91;1510882;93;21658;-49
2021/05/18 12:04:29;;;;;;;6.55;5.25;;;;;;;23.58;54.69;100115.38;1497620;94;21125;-49
2021/05/18 12:07:08;;;;;;;7.85;4.95;;;;;;;23.48;54.51;100117.99;1473682;95;21169;-49
2021/05/18 12:09:36;;;;;;;6.30;5.03;;;;;;;23.38;54.67;100126.38;1466664;96;21250;-48
2021/05/18 12:12:08;;;;;;;10.32;4.53;;;;;;;23.29;54.82;100126.63;1461790;96;21254;-48
2021/05/18 12:14:45;;;;;;;9.88;3.20;;;;;;;23.24;54.33;100135.97;1440468;98;21123;-50
2021/05/18 12:17:27;;;;;;;6.85;3.12;;;;;;;23.13;54.29;100122.73;1465361;95;21678;-50
2021/05/18 12:19:55;;;;;;;5.50;2.60;;;;;;;23.01;54.64;100121.11;1494322;95;21225;-49
2021/05/18 12:22:23;;;;;;;5.58;2.58;;;;;;;22.91;54.74;100115.73;1494223;95;21664;-50
2021/05/18 12:24:50;;;;;;;6.70;2.20;;;;;;;22.89;54.61;100103.55;1473470;96;21123;-50
2021/05/18 12:27:18;;;;;;;4.72;1.75;;;;;;;22.89;53.95;100083.66;1496228;95;21738;-50
2021/05/18 12:29:57;;;;;;;2.70;1.17;;;;;;;22.82;51.92;100087.77;1500478;92;21098;-50
2021/05/18 12:32:39;;;;;;;1.62;0.98;;;;;;;22.74;51.09;100057.91;1535185;92;21105;-50
2021/05/18 12:35:10;;;;;;;1.30;0.93;;;;;;;22.70;50.97;100031.77;1581875;89;21076;-51
2021/05/18 12:37:45;;;;;;;2.30;0.93;;;;;;;22.67;50.54;100021.42;1592779;88;21137;-50
2021/05/18 12:40:21;;;;;;;2.00;0.95;;;;;;;22.67;50.17;100032.03;1621567;86;21123;-49
2021/05/18 12:42:49;;;;;;;8.00;1.20;;;;;;;22.62;48.33;100057.60;1660616;84;21103;-50
2021/05/18 12:45:21;;;;;;;4.50;1.12;;;;;;;22.57;49.27;100065.89;1683028;83;21059;-49
2021/05/18 12:47:53;;;;;;;8.33;1.72;;;;;;;22.56;49.94;100057.59;1691370;84;21066;-50
2021/05/18 12:50:20;;;;;;;3.92;1.20;;;;;;;22.57;50.33;100061.07;1633296;86;21099;-49
2021/05/18 12:52:51;;;;;;;3.90;1.98;;;;;;;22.60;49.78;100061.72;1623288;87;21617;-50
2021/05/18 12:55:28;;;;;;;2.67;0.78;;;;;;;22.68;49.84;100064.20;1626020;87;21151;-50
2021/05/18 12:58:05;;;;;;;2.72;0.90;;;;;;;22.73;49.21;100063.35;1613465;87;21117;-50
2021/05/18 13:00:38;;;;;;;2.50;1.30;;;;;;;22.77;48.78;100051.05;1633874;86;21567;-50
2021/05/18 13:03:15;;;;;;;2.58;1.25;;;;;;;22.89;48.57;100047.84;1621645;86;21037;-50
2021/05/18 13:05:45;;;;;;;5.17;2.08;;;;;;;23.03;48.73;100050.17;1591446;88;21651;-50
2021/05/18 13:08:18;;;;;;;6.85;1.60;;;;;;;23.17;48.56;100049.84;1554647;90;21105;-49
2021/05/18 13:11:05;;;;;;;4.08;1.20;;;;;;;23.28;48.28;100049.79;1551826;89;21102;-50
2021/05/18 13:13:25;;;;;;;3.25;1.27;;;;;;;23.35;48.29;100057.60;1568405;90;21146;-50
2021/05/18 13:15:54;;;;;;;4.62;1.42;;;;;;;23.38;48.46;100058.69;1569502;90;21117;-50
2021/05/18 13:18:21;;;;;;;10.20;1.80;;;;;;;23.42;48.91;100054.79;1617022;87;21113;-50
2021/05/18 13:20:55;;;;;;;7.60;1.90;;;;;;;23.46;49.35;100056.20;1614365;87;21078;-49
2021/05/18 13:26:26;;;;;;;6.10;1.55;;;;;;;23.57;47.69;100063.26;1597069;88;21076;-49
2021/05/18 13:29:16;;;;;;;5.37;1.20;;;;;;;23.63;46.67;100063.58;1588019;89;21086;-49
2021/05/18 13:31:44;;;;;;;14.78;2.58;;;;;;;23.69;46.73;100066.17;1547225;90;21083;-50
2021/05/18 13:34:11;;;;;;;4.12;1.40;;;;;;;23.73;46.62;100065.78;1581205;90;21115;-49
2021/05/18 13:36:39;;;;;;;6.70;1.20;;;;;;;23.75;46.78;100062.51;1584431;90;21074;-50
2021/05/18 13:39:12;;;;;;;7.45;1.25;;;;;;;23.73;46.92;100069.77;1572096;89;21708;-50
2021/05/18 13:41:38;;;;;;;6.05;1.85;;;;;;;23.71;46.91;100079.69;1576104;90;21616;-50
2021/05/18 13:44:06;;;;;;;6.40;1.95;;;;;;;23.66;47.39;100078.41;1579165;90;21131;-50
2021/05/18 13:46:33;;;;;;;4.55;1.07;;;;;;;23.64;47.51;100078.52;1578917;90;21121;-50
2021/05/18 13:49:00;;;;;;;6.75;1.57;;;;;;;23.61;47.20;100084.11;1586550;89;21637;-50
2021/05/18 13:51:28;;;;;;;9.75;1.90;;;;;;;23.56;47.39;100077.02;1587954;90;21061;-50
2021/05/18 13:53:54;;;;;;;4.62;1.62;;;;;;;23.54;47.87;100079.44;1587981;89;21075;-50
2021/05/18 13:56:23;;;;;;;6.78;1.37;;;;;;;23.52;48.32;100080.91;1582805;90;21111;-50
2021/05/18 13:58:51;;;;;;;11.53;1.98;;;;;;;23.52;48.44;100074.75;1575091;90;21143;-49
2021/05/18 14:01:19;;;;;;;4.08;1.25;;;;;;;23.55;48.42;100075.83;1598541;86;21190;-50
2021/05/18 14:03:50;;;;;;;6.33;1.60;;;;;;;23.59;48.30;100077.24;1632015;86;21085;-49
2021/05/18 14:06:17;;;;;;;6.50;1.53;;;;;;;23.62;48.02;100072.50;1656854;85;21050;-50
2021/05/18 14:08:44;;;;;;;6.00;1.87;;;;;;;23.66;47.48;100080.56;1640332;86;22017;-49
2021/05/18 14:11:15;;;;;;;5.28;1.40;;;;;;;23.66;47.19;100085.05;1664063;84;21076;-49
2021/05/18 14:13:51;;;;;;;5.10;1.30;;;;;;;23.64;47.18;100087.82;1705384;82;21143;-50
2021/05/18 14:16:21;;;;;;;6.62;1.60;;;;;;;23.60;47.40;100081.56;1770332;79;21039;-50
2021/05/18 14:18:51;;;;;;;6.05;1.57;;;;;;;23.57;47.74;100080.05;1771366;80;21076;-49
2021/05/18 14:21:23;;;;;;;4.05;1.55;;;;;;;23.56;48.28;100077.02;1770250;79;21044;-49
2021/05/18 14:26:18;;;;;;;4.00;1.27;;;;;;;23.56;49.13;100077.02;1765745;79;21718;-50
2021/05/18 14:28:47;;;;;;;3.83;1.40;;;;;;;23.58;49.31;100080.38;1766266;80;21015;-50
2021/05/18 14:31:14;;;;;;;4.85;1.30;;;;;;;23.56;49.00;100090.30;1761118;79;21076;-49
2021/05/18 14:33:42;;;;;;;1.62;0.93;;;;;;;23.50;48.51;100086.84;1773842;79;21092;-50
2021/05/18 14:36:10;;;;;;;6.17;1.30;;;;;;;23.42;48.32;100091.96;1770190;79;21036;-50
2021/05/18 14:38:38;;;;;;;3.30;1.40;;;;;;;23.34;48.56;100089.13;1780983;79;21127;-49
2021/05/18 14:56:37;;;;;;;3.35;1.00;;;;;;;22.74;48.00;100078.28;1649331;85;21159;-50
2021/05/18 14:59:04;;;;;;;4.55;1.90;;;;;;;22.68;47.89;100083.61;1655726;85;21104;-50
2021/05/18 15:01:32;;;;;;;5.58;1.72;;;;;;;22.65;47.66;100083.38;1666922;85;21076;-52
2021/05/18 15:03:58;;;;;;;6.05;1.32;;;;;;;22.63;47.53;100085.31;1664064;85;21059;-49
2021/05/18 15:06:25;;;;;;;5.03;1.12;;;;;;;22.61;47.60;100092.55;1651218;84;21060;-49
2021/05/18 15:08:52;;;;;;;5.62;1.67;;;;;;;22.62;47.44;100082.32;1655708;85;21610;-49
2021/05/18 15:11:18;;;;;;;5.03;1.47;;;;;;;22.50;47.20;100088.56;1644225;85;21144;-48
2021/05/18 15:13:46;;;;;;;6.85;1.95;;;;;;;22.53;46.92;100081.70;1643917;85;21160;-49
2021/05/18 15:16:13;;;;;;;10.72;2.27;;;;;;;22.64;46.99;100080.38;1639027;85;21647;-50
2021/05/18 15:18:39;;;;;;;5.58;1.92;;;;;;;22.70;46.97;100084.81;1661370;85;21111;-50
2021/05/18 15:21:06;;;;;;;9.98;2.12;;;;;;;22.76;46.81;100076.34;1667202;85;21626;-50
2021/05/18 15:23:34;;;;;;;9.00;2.30;;;;;;;22.81;46.68;100066.21;1653601;85;21099;-50
2021/05/18 15:26:01;;;;;;;7.70;2.90;;;;;;;22.85;46.62;100062.33;1725616;79;21118;-50
2021/05/18 15:28:28;;;;;;;3.45;1.37;;;;;;;22.89;46.75;100073.89;1725430;82;21044;-50
2021/05/18 15:30:55;;;;;;;2.05;0.68;;;;;;;22.91;45.69;100065.80;1776924;79;21060;-49
2021/05/18 15:33:22;;;;;;;1.45;0.68;;;;;;;22.92;44.76;100066.98;1779324;79;21057;-49
2021/05/18 15:35:49;;;;;;;4.28;1.07;;;;;;;22.95;44.47;100060.59;1781980;79;21543;-50
2021/05/18 15:38:16;;;;;;;2.00;0.90;;;;;;;22.97;44.74;100058.17;1780116;79;21056;-49
2021/05/18 15:40:44;;;;;;;2.72;0.78;;;;;;;23.01;44.71;100049.46;1783596;80;21107;-50
2021/05/18 15:43:12;;;;;;;0.75;0.75;;;;;;;23.05;44.85;100056.20;1774982;80;21072;-49
2021/05/18 15:45:40;;;;;;;1.02;0.40;;;;;;;23.09;44.58;100050.98;1773591;79;21092;-50
2021/05/18 15:48:09;;;;;;;2.30;0.70;;;;;;;23.12;44.54;100058.19;1776425;79;21536;-49
2021/05/18 15:50:36;;;;;;;3.08;0.60;;;;;;;23.17;44.85;100059.14;1778326;80;21021;-50
2021/05/18 15:53:03;;;;;;;1.10;0.62;;;;;;;23.20;44.95;100057.09;1775114;79;21088;-49
2021/05/18 15:55:30;;;;;;;1.02;0.40;;;;;;;23.20;45.36;100064.20;1761073;79;21032;-49
2021/05/18 15:57:57;;;;;;;3.95;0.60;;;;;;;23.23;45.47;100065.25;1763956;80;21552;-50
2021/05/18 16:00:25;;;;;;;3.37;0.47;;;;;;;23.26;45.43;100065.01;1775222;79;21080;-49
2021/05/18 16:02:51;;;;;;;0.55;0.55;;;;;;;23.30;45.31;100060.64;1782775;80;21552;-49
2021/05/18 16:05:18;;;;;;;0.85;0.40;;;;;;;23.38;44.86;100063.99;1784069;79;21059;-49
2021/05/18 16:07:52;;;;;;;6.12;0.60;;;;;;;23.42;43.78;100070.72;1789702;79;21153;-49
2021/05/18 16:10:13;;;;;;;0.72;0.50;;;;;;;23.41;42.60;100066.40;1754574;80;21052;-50
2021/05/18 16:12:40;;;;;;;0.62;0.40;;;;;;;23.40;42.03;100061.57;1780665;80;21056;-49
2021/05/18 16:15:10;;;;;;;0.78;0.50;;;;;;;23.40;41.80;100056.73;1761890;80;21033;-50
2021/05/18 16:17:36;;;;;;;0.60;0.45;;;;;;;23.40;41.57;100056.73;1771845;79;21607;-49
2021/05/18 16:20:07;;;;;;;2.25;0.75;;;;;;;23.40;41.27;100054.93;1769885;79;21083;-49
2021/05/18 16:22:34;;;;;;;0.53;0.50;;;;;;;23.43;41.07;100045.87;1770437;79;21061;-50
2021/05/18 16:25:01;;;;;;;0.72;0.50;;;;;;;23.42;41.02;100053.46;1748191;80;21068;-50
2021/05/18 16:27:27;;;;;;;1.10;0.40;;;;;;;23.43;41.19;100052.51;1739604;81;21077;-49
2021/05/18 16:29:54;;;;;;;0.65;0.40;;;;;;;23.43;41.33;100055.16;1789301;79;21063;-49
2021/05/18 16:32:21;;;;;;;0.78;0.42;;;;;;;23.41;41.42;100059.77;1766143;79;21103;-49
2021/05/18 16:34:48;;;;;;;1.52;0.50;;;;;;;23.40;41.36;100058.06;1795029;79;21123;-49
2021/05/18 16:37:15;;;;;;;2.85;0.80;;;;;;;23.38;41.48;100051.56;1777145;79;21065;-49
2021/05/18 16:39:42;;;;;;;1.98;0.53;;;;;;;23.36;41.83;100053.98;1714649;82;21096;-49
2021/05/18 16:42:09;;;;;;;1.82;0.90;;;;;;;23.30;41.86;100060.64;1786549;79;21080;-49
2021/05/18 16:44:36;;;;;;;4.78;0.85;;;;;;;23.22;42.04;100055.14;1773508;79;21075;-49
2021/05/18 16:47:03;;;;;;;1.95;0.78;;;;;;;23.14;42.42;100048.80;1784804;79;21037;-49
2021/05/18 16:49:29;;;;;;;2.92;0.82;;;;;;;23.07;42.90;100051.59;1783892;79;21130;-50
2021/05/18 16:51:56;;;;;;;4.33;0.72;;;;;;;22.96;43.36;100048.52;1776507;79;21072;-49